Temple Hills, Maryland
Current Conditions -  °F | °C
As of 9:55 AM on Saturday 20 Dec 2014 (Local Time) from KADW Reporting Station
Few Clouds Few Clouds  
Wind Chill: 27°   Ceiling: Unl
Heat Index: 32°   Visibility: 7mi
Dew Point: 21°   Wind: 5mph
Humidity: 64%   Direction: 10°N
Pressure: 30.33"   Gusts: NA
Location:  38.82°N, 76.95°W
Report Text: KADW 201455Z 01004KT 7SM FEW180 00/M06 A3033 RMK AO2A SLP274 T10011062 51013
Loading
Personal Weather Stations






























Interactive Weather Map New forecast layout! Learn more

10-Day Weather Forecast

Advertisements
Track Severe Weather on mobile